createdAt,value
2018-03-06T00:00:52.037Z,14.65
2018-03-06T00:01:54.567Z,19.75
2018-03-06T00:02:57.194Z,15.70
2018-03-06T00:03:59.748Z,13.50
2018-03-06T00:05:02.262Z,13.30
2018-03-06T00:06:04.795Z,14.98
2018-03-06T00:07:07.345Z,14.90
2018-03-06T00:08:09.878Z,13.65
2018-03-06T00:09:13.176Z,13.82
2018-03-06T00:10:16.454Z,11.75
2018-03-06T00:11:19.730Z,11.85
2018-03-06T00:12:23.022Z,11.30
2018-03-06T00:13:26.298Z,11.40
2018-03-06T00:14:29.565Z,9.63
2018-03-06T00:15:32.077Z,10.52
2018-03-06T00:16:34.595Z,10.93
2018-03-06T00:17:37.126Z,10.07
2018-03-06T00:18:39.641Z,11.82
2018-03-06T00:19:42.973Z,11.77
2018-03-06T00:20:45.493Z,10.38
2018-03-06T00:21:48.782Z,11.60
2018-03-06T00:22:52.082Z,10.77
2018-03-06T00:23:54.663Z,12.45
2018-03-06T00:24:57.190Z,12.27
2018-03-06T00:26:00.478Z,10.95
2018-03-06T00:27:03.747Z,9.40
2018-03-06T00:28:06.350Z,9.60
2018-03-06T00:29:08.864Z,8.93
2018-03-06T00:30:11.373Z,8.52
2018-03-06T00:31:13.890Z,8.50
2018-03-06T00:32:16.397Z,8.75
2018-03-06T00:33:19.694Z,9.18
2018-03-06T00:34:22.222Z,8.30
2018-03-06T00:35:24.732Z,7.97
2018-03-06T00:36:27.249Z,8.73
2018-03-06T00:37:29.754Z,8.00
2018-03-06T00:38:32.289Z,8.38
2018-03-06T00:39:35.567Z,8.75
2018-03-06T00:40:38.101Z,8.32
2018-03-06T00:41:40.621Z,8.45
2018-03-06T00:42:43.914Z,8.43
2018-03-06T00:43:46.438Z,9.00
2018-03-06T00:44:49.599Z,8.88
2018-03-06T00:45:52.131Z,8.95
2018-03-06T00:46:54.656Z,9.23
2018-03-06T00:47:57.182Z,9.57
2018-03-06T00:48:59.720Z,9.68
2018-03-06T00:50:02.999Z,9.80
2018-03-06T00:51:05.544Z,10.10
2018-03-06T00:52:08.899Z,9.70
2018-03-06T00:53:11.434Z,9.65
2018-03-06T00:54:13.958Z,9.60
2018-03-06T00:55:17.251Z,9.90
2018-03-06T00:56:20.694Z,10.75
2018-03-06T00:57:23.218Z,10.05
2018-03-06T00:58:25.758Z,10.25
2018-03-06T00:59:28.293Z,10.77
2018-03-06T01:00:30.851Z,10.55
2018-03-06T01:01:33.391Z,10.60
2018-03-06T01:02:35.939Z,10.70
2018-03-06T01:03:39.251Z,10.13
2018-03-06T01:04:41.774Z,9.82
2018-03-06T01:05:44.295Z,9.85
2018-03-06T01:06:46.832Z,9.32
2018-03-06T01:07:49.361Z,9.40
2018-03-06T01:08:51.898Z,9.07
2018-03-06T01:09:54.410Z,9.27
2018-03-06T01:10:57.691Z,8.80
2018-03-06T01:12:00.980Z,9.25
2018-03-06T01:13:04.262Z,9.52
2018-03-06T01:14:07.570Z,8.98
2018-03-06T01:15:11.683Z,10.02
2018-03-06T01:16:14.246Z,10.02
2018-03-06T01:17:16.831Z,9.75
2018-03-06T01:18:19.338Z,9.93
2018-03-06T01:19:23.704Z,9.82
2018-03-06T01:20:26.221Z,9.57
2018-03-06T01:21:29.499Z,9.75
2018-03-06T01:22:32.019Z,8.73
2018-03-06T01:23:34.535Z,8.82
2018-03-06T01:24:37.859Z,10.02
2018-03-06T01:25:40.374Z,9.43
2018-03-06T01:26:42.907Z,9.75
2018-03-06T01:27:45.423Z,10.10
2018-03-06T01:28:48.699Z,9.45
2018-03-06T01:29:52.005Z,9.57
2018-03-06T01:30:54.582Z,9.60
2018-03-06T01:31:57.109Z,10.35
2018-03-06T01:32:59.624Z,9.43
2018-03-06T01:34:02.142Z,9.95
2018-03-06T01:35:04.703Z,9.40
2018-03-06T01:36:07.239Z,9.68
2018-03-06T01:37:09.759Z,10.43
2018-03-06T01:38:13.043Z,10.18
2018-03-06T01:39:16.362Z,10.32
2018-03-06T01:40:18.894Z,9.75
2018-03-06T01:41:21.422Z,10.13
2018-03-06T01:42:24.046Z,9.52
2018-03-06T01:43:26.565Z,9.35
2018-03-06T01:44:29.114Z,10.40
2018-03-06T01:45:31.667Z,9.70
2018-03-06T01:46:34.175Z,10.25
2018-03-06T01:47:37.467Z,10.40
2018-03-06T01:48:40.758Z,10.77
2018-03-06T01:49:43.274Z,11.38
2018-03-06T01:50:45.834Z,11.07
2018-03-06T01:51:58.285Z,11.57
2018-03-06T01:53:00.827Z,10.82
2018-03-06T01:54:04.366Z,10.48
2018-03-06T01:55:06.887Z,11.35
2018-03-06T01:56:09.437Z,11.43
2018-03-06T01:57:11.964Z,11.48
2018-03-06T01:58:14.487Z,10.65
2018-03-06T01:59:17.018Z,10.52
2018-03-06T02:00:19.546Z,10.82
2018-03-06T02:01:22.082Z,10.77
2018-03-06T02:02:24.706Z,10.88
2018-03-06T02:03:27.226Z,11.32
2018-03-06T02:04:30.510Z,10.30
2018-03-06T02:05:33.798Z,10.82
2018-03-06T02:06:37.106Z,10.82
2018-03-06T02:07:39.616Z,10.90
2018-03-06T02:08:42.127Z,11.05
2018-03-06T02:09:44.651Z,11.30
2018-03-06T02:10:47.273Z,11.02
2018-03-06T02:11:49.835Z,11.15
2018-03-06T02:12:52.404Z,11.68
2018-03-06T02:13:54.930Z,12.00
2018-03-06T02:14:57.534Z,11.30
2018-03-06T02:16:00.108Z,11.48
2018-03-06T02:17:02.666Z,12.82
2018-03-06T02:18:05.196Z,11.82
2018-03-06T02:19:07.731Z,11.18
2018-03-06T02:20:10.263Z,11.45
2018-03-06T02:21:12.786Z,11.38
2018-03-06T02:22:15.411Z,11.95
2018-03-06T02:23:17.934Z,12.37
2018-03-06T02:24:21.226Z,11.68
2018-03-06T02:25:24.520Z,11.00
2018-03-06T02:26:27.046Z,11.48
2018-03-06T02:27:29.591Z,11.02
2018-03-06T02:28:32.110Z,11.23
2018-03-06T02:29:34.630Z,10.10
2018-03-06T02:30:37.159Z,12.27
2018-03-06T02:31:39.692Z,11.88
2018-03-06T02:32:43.002Z,12.15
2018-03-06T02:33:45.522Z,11.93
2018-03-06T02:34:48.043Z,11.60
2018-03-06T02:35:50.567Z,12.13
2018-03-06T02:36:53.854Z,11.68
2018-03-06T02:37:57.171Z,11.63
2018-03-06T02:38:59.710Z,11.68
2018-03-06T02:40:03.003Z,11.82
2018-03-06T02:41:06.290Z,11.98
2018-03-06T02:42:09.585Z,11.07
2018-03-06T02:43:12.138Z,12.25
2018-03-06T02:44:15.423Z,12.60
2018-03-06T02:45:18.714Z,12.37
2018-03-06T02:46:21.255Z,12.85
2018-03-06T02:47:24.543Z,12.05
2018-03-06T02:48:27.854Z,11.95
2018-03-06T02:49:30.431Z,11.85
2018-03-06T02:50:32.955Z,12.23
2018-03-06T02:51:36.289Z,12.05
2018-03-06T02:52:38.838Z,12.25
2018-03-06T02:53:41.719Z,12.32
2018-03-06T02:54:44.235Z,11.45
2018-03-06T02:55:46.858Z,11.85
2018-03-06T02:56:49.400Z,11.85
2018-03-06T02:57:51.995Z,11.12
2018-03-06T02:58:54.854Z,12.02
2018-03-06T02:59:57.393Z,11.70
2018-03-06T03:01:00.683Z,11.88
2018-03-06T03:02:03.971Z,11.63
2018-03-06T03:03:07.247Z,11.90
2018-03-06T03:04:10.556Z,12.05
2018-03-06T03:05:13.094Z,11.00
2018-03-06T03:06:16.392Z,11.65
2018-03-06T03:07:18.921Z,11.15
2018-03-06T03:08:21.443Z,11.80
2018-03-06T03:09:23.982Z,12.02
2018-03-06T03:10:27.266Z,10.98
2018-03-06T03:11:30.555Z,11.73
2018-03-06T03:12:33.154Z,11.70
2018-03-06T03:13:35.717Z,11.15
2018-03-06T03:14:38.274Z,11.63
2018-03-06T03:15:40.795Z,11.95
2018-03-06T03:16:44.127Z,12.40
2018-03-06T03:17:46.650Z,11.73
2018-03-06T03:18:49.947Z,11.85
2018-03-06T03:19:53.248Z,12.00
2018-03-06T03:20:55.822Z,13.27
2018-03-06T03:21:58.399Z,13.20
2018-03-06T03:23:00.924Z,12.20
2018-03-06T03:24:04.203Z,11.90
2018-03-06T03:25:06.731Z,12.75
2018-03-06T03:26:09.250Z,12.77
2018-03-06T03:27:11.766Z,12.32
2018-03-06T03:28:14.279Z,11.90
2018-03-06T03:29:17.563Z,12.07
2018-03-06T03:30:20.104Z,12.90
2018-03-06T03:31:22.631Z,11.38
2018-03-06T03:32:25.155Z,13.27
2018-03-06T03:33:28.439Z,12.30
2018-03-06T03:34:31.730Z,13.13
2018-03-06T03:35:34.270Z,12.57
2018-03-06T03:36:36.792Z,13.30
2018-03-06T03:37:39.298Z,12.68
2018-03-06T03:38:41.823Z,13.13
2018-03-06T03:39:44.343Z,12.05
2018-03-06T03:40:47.674Z,12.45
2018-03-06T03:41:50.198Z,12.23
2018-03-06T03:42:53.492Z,12.85
2018-03-06T03:43:56.023Z,13.57
2018-03-06T03:44:58.548Z,12.50
2018-03-06T03:46:01.088Z,13.43
2018-03-06T03:47:03.612Z,12.95
2018-03-06T03:48:06.243Z,12.73
2018-03-06T03:49:08.811Z,13.07
2018-03-06T03:50:11.328Z,12.30
2018-03-06T03:51:13.866Z,13.23
2018-03-06T03:52:16.383Z,12.70
2018-03-06T03:53:19.671Z,12.40
2018-03-06T03:54:22.942Z,13.52
2018-03-06T03:55:26.233Z,13.27
2018-03-06T03:56:29.550Z,12.20
2018-03-06T03:57:32.089Z,12.60
2018-03-06T03:58:34.618Z,13.95
2018-03-06T03:59:37.135Z,13.52
2018-03-06T04:00:39.662Z,14.02
2018-03-06T04:01:43.002Z,13.55
2018-03-06T04:02:45.522Z,13.20
2018-03-06T04:03:48.815Z,13.48
2018-03-06T04:04:52.109Z,14.15
2018-03-06T04:05:54.638Z,12.93
2018-03-06T04:06:57.178Z,13.73
2018-03-06T04:07:59.711Z,13.65
2018-03-06T04:09:02.234Z,13.15
2018-03-06T04:10:04.775Z,13.68
2018-03-06T04:11:07.318Z,12.77
2018-03-06T04:12:09.862Z,13.35
2018-03-06T04:13:13.146Z,14.10
2018-03-06T04:14:15.671Z,13.32
2018-03-06T04:15:19.699Z,13.38
2018-03-06T04:16:22.982Z,13.65
2018-03-06T04:17:26.311Z,13.15
2018-03-06T04:18:28.822Z,13.68
2018-03-06T04:19:31.343Z,14.68
2018-03-06T04:20:33.866Z,13.43
2018-03-06T04:21:37.154Z,14.25
2018-03-06T04:22:40.482Z,14.45
2018-03-06T04:23:42.999Z,14.00
2018-03-06T04:24:46.282Z,15.02
2018-03-06T04:25:49.571Z,15.25
2018-03-06T04:26:52.854Z,15.20
2018-03-06T04:27:56.157Z,14.45
2018-03-06T04:28:58.684Z,15.07
2018-03-06T04:30:01.215Z,15.60
2018-03-06T04:31:03.827Z,14.82
2018-03-06T04:32:07.122Z,15.10
2018-03-06T04:33:10.423Z,15.27
2018-03-06T04:34:12.946Z,15.45
2018-03-06T04:35:15.480Z,15.88
2018-03-06T04:36:18.006Z,15.63
2018-03-06T04:37:20.534Z,15.75
2018-03-06T04:38:23.078Z,15.60
2018-03-06T04:39:25.600Z,14.73
2018-03-06T04:40:28.884Z,14.68
2018-03-06T04:41:32.172Z,15.23
2018-03-06T04:42:34.706Z,14.95
2018-03-06T04:43:37.257Z,16.20
2018-03-06T04:44:39.779Z,15.63
2018-03-06T04:45:42.296Z,14.50
2018-03-06T04:46:44.846Z,15.77
2018-03-06T04:47:47.366Z,15.05
2018-03-06T04:48:49.912Z,13.90
2018-03-06T04:49:53.202Z,14.98
2018-03-06T04:50:56.500Z,14.73
2018-03-06T04:51:59.034Z,15.35
2018-03-06T04:53:01.555Z,14.60
2018-03-06T04:54:04.098Z,15.45
2018-03-06T04:55:07.386Z,15.38
2018-03-06T04:56:09.925Z,15.48
2018-03-06T04:57:12.448Z,15.15
2018-03-06T04:58:14.990Z,15.27
2018-03-06T04:59:17.890Z,14.77
2018-03-06T05:00:20.435Z,14.93
2018-03-06T05:01:22.987Z,14.68
2018-03-06T05:02:25.532Z,15.27
2018-03-06T05:03:28.827Z,15.35
2018-03-06T05:04:32.135Z,15.88
2018-03-06T05:05:34.662Z,15.05
2018-03-06T05:06:37.185Z,16.62
2018-03-06T05:07:39.743Z,13.85
2018-03-06T05:08:42.263Z,15.65
2018-03-06T05:09:44.794Z,14.18
2018-03-06T05:10:47.317Z,15.07
2018-03-06T05:11:50.612Z,15.43
2018-03-06T05:12:53.135Z,15.35
2018-03-06T05:13:55.675Z,16.60
2018-03-06T05:14:58.230Z,16.33
2018-03-06T05:16:00.759Z,16.17
2018-03-06T05:17:04.057Z,16.25
2018-03-06T05:18:06.583Z,15.48
2018-03-06T05:19:09.109Z,16.40
2018-03-06T05:20:11.966Z,15.93
2018-03-06T05:21:14.490Z,17.15
2018-03-06T05:22:17.027Z,19.33
2018-03-06T05:23:19.558Z,20.05
2018-03-06T05:24:22.082Z,18.65
2018-03-06T05:25:24.639Z,17.20
2018-03-06T05:26:27.154Z,17.23
2018-03-06T05:27:29.679Z,16.95
2018-03-06T05:28:32.211Z,15.20
2018-03-06T05:29:34.744Z,17.12
2018-03-06T05:30:37.282Z,16.33
2018-03-06T05:31:39.901Z,15.52
2018-03-06T05:32:42.424Z,16.70
2018-03-06T05:33:45.711Z,17.30
2018-03-06T05:34:48.230Z,18.10
2018-03-06T05:35:50.787Z,18.30
2018-03-06T05:36:53.311Z,17.37
2018-03-06T05:37:56.594Z,17.15
2018-03-06T05:38:59.986Z,19.25
2018-03-06T05:40:02.454Z,17.15
2018-03-06T05:41:05.763Z,16.30
2018-03-06T05:42:08.290Z,16.73
2018-03-06T05:43:11.586Z,16.98
2018-03-06T05:44:14.110Z,16.05
2018-03-06T05:45:16.628Z,16.70
2018-03-06T05:46:19.185Z,18.17
2018-03-06T05:47:21.711Z,19.87
2018-03-06T05:48:24.244Z,19.05
2018-03-06T05:49:26.766Z,19.48
2018-03-06T05:50:30.062Z,18.75
2018-03-06T05:51:33.370Z,17.48
2018-03-06T05:52:35.908Z,18.05
2018-03-06T05:53:39.211Z,15.98
2018-03-06T05:54:41.735Z,15.65
2018-03-06T05:55:44.259Z,15.77
2018-03-06T05:56:46.811Z,17.12
2018-03-06T05:57:49.333Z,16.92
2018-03-06T05:58:51.866Z,17.15
2018-03-06T05:59:54.395Z,17.10
2018-03-06T06:00:56.946Z,16.80
2018-03-06T06:01:59.470Z,17.08
2018-03-06T06:03:02.003Z,19.52
2018-03-06T06:04:04.534Z,19.55
2018-03-06T06:05:07.837Z,21.12
2018-03-06T06:06:11.136Z,21.90
2018-03-06T06:07:13.714Z,23.55
2018-03-06T06:08:16.256Z,24.90
2018-03-06T06:09:19.543Z,20.52
2018-03-06T06:10:22.113Z,20.58
2018-03-06T06:11:24.860Z,19.65
2018-03-06T06:12:28.211Z,20.10
2018-03-06T06:13:30.788Z,21.25
2018-03-06T06:14:33.276Z,20.88
2018-03-06T06:15:35.783Z,21.27
2018-03-06T06:16:38.335Z,19.92
2018-03-06T06:17:40.873Z,20.42
2018-03-06T06:18:43.396Z,21.05
2018-03-06T06:19:45.921Z,24.83
2018-03-06T06:20:48.459Z,24.50
2018-03-06T06:21:50.958Z,27.05
2018-03-06T06:22:54.274Z,25.10
2018-03-06T06:23:56.784Z,23.98
2018-03-06T06:24:59.294Z,22.37
2018-03-06T06:26:01.847Z,22.25
2018-03-06T06:27:05.132Z,22.83
2018-03-06T06:28:08.650Z,21.33
2018-03-06T06:29:11.156Z,23.17
2018-03-06T06:30:13.662Z,22.15
2018-03-06T06:31:16.176Z,20.27
2018-03-06T06:32:18.683Z,21.92
2018-03-06T06:33:21.975Z,23.52
2018-03-06T06:34:24.571Z,27.55
2018-03-06T06:35:27.170Z,25.73
2018-03-06T06:36:29.757Z,23.55
2018-03-06T06:37:33.043Z,22.65
2018-03-06T06:38:36.370Z,22.67
2018-03-06T06:39:38.876Z,23.52
2018-03-06T06:40:41.471Z,24.27
2018-03-06T06:41:44.747Z,23.12
2018-03-06T06:42:48.060Z,21.08
2018-03-06T06:43:50.634Z,19.02
2018-03-06T06:44:54.012Z,20.40
2018-03-06T06:45:56.523Z,20.90
2018-03-06T06:46:59.938Z,21.70
2018-03-06T06:48:03.314Z,19.87
2018-03-06T06:49:06.616Z,19.65
2018-03-06T06:50:09.159Z,21.58
2018-03-06T06:51:11.697Z,19.92
2018-03-06T06:52:14.233Z,21.12
2018-03-06T06:53:16.738Z,20.70
2018-03-06T06:54:19.301Z,21.20
2018-03-06T06:55:21.839Z,20.02
2018-03-06T06:56:24.344Z,20.88
2018-03-06T06:57:28.368Z,19.27
2018-03-06T06:58:31.648Z,20.50
2018-03-06T06:59:34.944Z,21.17
2018-03-06T07:00:37.481Z,21.48
2018-03-06T07:01:40.091Z,19.40
2018-03-06T07:02:42.607Z,19.05
2018-03-06T07:03:45.128Z,19.58
2018-03-06T07:04:47.662Z,21.62
2018-03-06T07:05:50.934Z,20.90
2018-03-06T07:06:53.446Z,20.10
2018-03-06T07:07:55.955Z,18.85
2018-03-06T07:08:58.462Z,20.40
2018-03-06T07:10:01.330Z,20.27
2018-03-06T07:11:03.859Z,19.75
2018-03-06T07:12:06.475Z,18.67
2018-03-06T07:13:08.984Z,20.85
2018-03-06T07:14:12.278Z,20.80
2018-03-06T07:15:14.808Z,18.92
2018-03-06T07:16:17.311Z,19.20
2018-03-06T07:17:19.838Z,19.12
2018-03-06T07:18:22.344Z,20.02
2018-03-06T07:19:25.674Z,19.33
2018-03-06T07:20:28.203Z,19.52
2018-03-06T07:21:31.503Z,19.70
2018-03-06T07:22:34.770Z,19.08
2018-03-06T07:23:38.078Z,19.58
2018-03-06T07:24:40.601Z,18.27
2018-03-06T07:25:43.127Z,19.87
2018-03-06T07:26:45.643Z,19.83
2018-03-06T07:27:48.146Z,19.12
2018-03-06T07:28:50.663Z,19.95
2018-03-06T07:29:53.195Z,18.98
2018-03-06T07:30:55.715Z,20.65
2018-03-06T07:31:58.998Z,19.87
2018-03-06T07:33:02.286Z,19.02
2018-03-06T07:34:05.563Z,20.60
2018-03-06T07:35:08.855Z,19.67
2018-03-06T07:36:12.165Z,19.23
2018-03-06T07:37:14.696Z,20.17
2018-03-06T07:38:17.970Z,19.65
2018-03-06T07:39:20.487Z,19.85
2018-03-06T07:40:22.998Z,20.80
2018-03-06T07:41:25.524Z,19.65
2018-03-06T07:42:28.035Z,19.55
2018-03-06T07:43:30.537Z,20.52
2018-03-06T07:44:33.043Z,20.15
2018-03-06T07:45:35.539Z,20.62
2018-03-06T07:46:38.844Z,21.17
2018-03-06T07:47:41.363Z,21.40
2018-03-06T07:48:43.882Z,20.65
2018-03-06T07:49:46.392Z,20.75
2018-03-06T07:50:48.892Z,20.42
2018-03-06T07:51:52.192Z,20.75
2018-03-06T07:52:55.104Z,20.37
2018-03-06T07:53:57.610Z,20.90
2018-03-06T07:55:00.884Z,19.42
2018-03-06T07:56:03.446Z,20.42
2018-03-06T07:57:05.976Z,26.35
2018-03-06T07:58:08.499Z,27.92
2018-03-06T07:59:11.762Z,23.25
2018-03-06T08:00:14.296Z,21.98
2018-03-06T08:01:16.852Z,21.52
2018-03-06T08:02:19.398Z,21.27
2018-03-06T08:03:21.918Z,21.00
2018-03-06T08:04:24.507Z,19.75
2018-03-06T08:05:27.775Z,21.33
2018-03-06T08:06:30.363Z,20.88
2018-03-06T08:07:32.894Z,20.58
2018-03-06T08:08:35.416Z,21.77
2018-03-06T08:09:37.927Z,19.98
2018-03-06T08:10:40.491Z,21.33
2018-03-06T08:11:42.992Z,21.00
2018-03-06T08:12:45.543Z,21.60
2018-03-06T08:13:48.819Z,20.85
2018-03-06T08:14:51.332Z,20.88
2018-03-06T08:15:53.852Z,20.62
2018-03-06T08:16:56.358Z,20.37
2018-03-06T08:17:58.892Z,21.75
2018-03-06T08:19:02.212Z,20.30
2018-03-06T08:20:04.730Z,20.65
2018-03-06T08:21:07.265Z,22.35
2018-03-06T08:22:09.815Z,21.70
2018-03-06T08:23:12.347Z,20.17
2018-03-06T08:24:16.382Z,20.42
2018-03-06T08:25:18.917Z,22.37
2018-03-06T08:26:22.187Z,21.55
2018-03-06T08:27:25.479Z,21.12
2018-03-06T08:28:28.775Z,19.48
2018-03-06T08:29:31.280Z,17.60
2018-03-06T08:30:33.801Z,20.92
2018-03-06T08:31:37.076Z,21.55
2018-03-06T08:32:40.344Z,21.20
2018-03-06T08:33:42.951Z,21.83
2018-03-06T08:34:45.507Z,21.67
2018-03-06T08:35:48.875Z,20.98
2018-03-06T08:36:52.197Z,20.25
2018-03-06T08:37:54.722Z,21.67
2018-03-06T08:38:58.014Z,19.80
2018-03-06T08:40:01.310Z,22.27
2018-03-06T08:41:03.815Z,22.37
2018-03-06T08:42:06.320Z,21.62
2018-03-06T08:43:09.602Z,22.42
2018-03-06T08:44:12.945Z,20.80
2018-03-06T08:45:15.481Z,21.67
2018-03-06T08:46:20.100Z,21.08
2018-03-06T08:47:22.608Z,21.70
2018-03-06T08:48:25.109Z,21.77
2018-03-06T08:49:28.387Z,21.62
2018-03-06T08:50:31.676Z,21.58
2018-03-06T08:51:34.951Z,20.52
2018-03-06T08:52:38.222Z,21.65
2018-03-06T08:53:40.763Z,22.45
2018-03-06T08:54:43.282Z,21.73
2018-03-06T08:55:46.559Z,21.85
2018-03-06T08:56:49.836Z,22.08
2018-03-06T08:57:53.111Z,21.60
2018-03-06T08:58:56.869Z,21.92
2018-03-06T08:59:59.407Z,21.87
2018-03-06T09:01:01.919Z,21.50
2018-03-06T09:02:04.434Z,22.70
2018-03-06T09:03:06.950Z,21.90
2018-03-06T09:04:09.476Z,21.50
2018-03-06T09:05:12.037Z,19.70
2018-03-06T09:06:14.791Z,20.33
2018-03-06T09:07:17.314Z,22.27
2018-03-06T09:08:19.815Z,21.30
2018-03-06T09:09:23.087Z,21.70
2018-03-06T09:10:26.398Z,20.25
2018-03-06T09:11:28.915Z,20.80
2018-03-06T09:12:31.442Z,21.70
2018-03-06T09:13:33.970Z,20.67
2018-03-06T09:14:37.258Z,21.67
2018-03-06T09:15:40.632Z,20.30
2018-03-06T09:16:44.006Z,20.30
2018-03-06T09:17:46.539Z,23.40
2018-03-06T09:18:49.109Z,22.33
2018-03-06T09:19:51.624Z,22.05
2018-03-06T09:20:54.929Z,21.15
2018-03-06T09:21:57.484Z,21.00
2018-03-06T09:23:01.006Z,22.02
2018-03-06T09:24:03.530Z,20.75
2018-03-06T09:25:06.851Z,20.42
2018-03-06T09:26:09.403Z,22.30
2018-03-06T09:27:11.948Z,21.92
2018-03-06T09:28:15.278Z,20.65
2018-03-06T09:29:17.782Z,20.67
2018-03-06T09:30:21.047Z,19.73
2018-03-06T09:31:23.591Z,21.17
2018-03-06T09:32:26.136Z,20.45
2018-03-06T09:33:28.651Z,20.27
2018-03-06T09:34:31.161Z,20.25
2018-03-06T09:35:33.663Z,20.67
2018-03-06T09:36:36.926Z,22.37
2018-03-06T09:37:39.471Z,19.98
2018-03-06T09:38:42.048Z,20.98
2018-03-06T09:39:44.583Z,19.70
2018-03-06T09:40:47.905Z,20.60
2018-03-06T09:41:50.446Z,20.98
2018-03-06T09:42:53.718Z,21.80
2018-03-06T09:43:57.001Z,21.00
2018-03-06T09:45:00.290Z,21.75
2018-03-06T09:46:03.611Z,21.98
2018-03-06T09:47:06.299Z,20.50
2018-03-06T09:48:09.043Z,22.05
2018-03-06T09:49:12.307Z,20.70
2018-03-06T09:50:15.616Z,20.48
2018-03-06T09:51:18.130Z,19.92
2018-03-06T09:52:22.196Z,20.05
2018-03-06T09:53:24.713Z,19.52
2018-03-06T09:54:28.004Z,20.62
2018-03-06T09:55:31.279Z,20.08
2018-03-06T09:56:34.566Z,20.42
2018-03-06T09:57:37.859Z,20.60
2018-03-06T09:58:41.146Z,21.12
2018-03-06T09:59:43.687Z,21.02
2018-03-06T10:00:46.986Z,20.98
2018-03-06T10:01:49.516Z,21.73
2018-03-06T10:02:52.051Z,20.60
2018-03-06T10:03:54.569Z,21.42
2018-03-06T10:04:57.900Z,21.58
2018-03-06T10:06:00.434Z,23.50
2018-03-06T10:07:03.731Z,24.08
2018-03-06T10:08:06.305Z,25.37
2018-03-06T10:09:08.850Z,23.35
2018-03-06T10:10:12.127Z,28.45
2018-03-06T10:11:15.409Z,31.30
2018-03-06T10:12:18.720Z,28.92
2018-03-06T10:13:21.295Z,26.15
2018-03-06T10:14:23.815Z,23.67
2018-03-06T10:15:26.470Z,21.48
2018-03-06T10:16:29.768Z,22.83
2018-03-06T10:17:32.270Z,25.17
2018-03-06T10:18:34.805Z,24.23
2018-03-06T10:19:38.095Z,24.63
2018-03-06T10:20:41.367Z,24.20
2018-03-06T10:21:43.880Z,23.70
2018-03-06T10:22:47.460Z,24.65
2018-03-06T10:23:50.277Z,26.15
2018-03-06T10:24:52.799Z,24.92
2018-03-06T10:25:55.327Z,24.08
2018-03-06T10:26:57.839Z,22.67
2018-03-06T10:28:00.349Z,22.50
2018-03-06T10:29:02.882Z,23.67
2018-03-06T10:30:06.115Z,25.37
2018-03-06T10:31:09.400Z,24.87
2018-03-06T10:32:12.733Z,29.65
2018-03-06T10:33:15.266Z,25.67
2018-03-06T10:34:17.850Z,23.08
2018-03-06T10:35:20.379Z,22.55
2018-03-06T10:36:23.656Z,23.85
2018-03-06T10:37:26.210Z,24.23
2018-03-06T10:38:28.715Z,22.87
2018-03-06T10:39:31.257Z,22.85
2018-03-06T10:40:34.534Z,24.15
2018-03-06T10:41:37.047Z,21.10
2018-03-06T10:42:39.559Z,22.83
2018-03-06T10:43:42.067Z,23.05
2018-03-06T10:44:44.614Z,25.12
2018-03-06T10:45:47.893Z,24.52
2018-03-06T10:46:51.169Z,23.77
2018-03-06T10:47:54.464Z,23.75
2018-03-06T10:48:57.735Z,23.17
2018-03-06T10:50:01.051Z,23.67
2018-03-06T10:51:03.563Z,22.37
2018-03-06T10:52:06.076Z,22.58
2018-03-06T10:53:08.587Z,21.40
2018-03-06T10:54:11.152Z,21.02
2018-03-06T10:55:13.733Z,21.98
2018-03-06T10:56:16.278Z,23.15
2018-03-06T10:57:18.822Z,21.73
2018-03-06T10:58:21.538Z,21.50
2018-03-06T10:59:24.053Z,21.98
2018-03-06T11:00:32.218Z,20.73
2018-03-06T11:01:36.373Z,21.75
2018-03-06T11:02:43.711Z,23.27
2018-03-06T11:03:46.995Z,21.00
2018-03-06T11:04:50.312Z,21.23
2018-03-06T11:05:53.753Z,21.52
2018-03-06T11:06:58.038Z,18.30
2018-03-06T11:08:00.547Z,20.77
2018-03-06T11:09:03.424Z,21.17
2018-03-06T11:10:07.699Z,24.85
2018-03-06T11:11:10.990Z,20.88
2018-03-06T11:12:14.260Z,21.25
2018-03-06T11:13:17.543Z,19.80
2018-03-06T11:14:21.975Z,18.75
2018-03-06T11:15:25.296Z,20.23
2018-03-06T11:16:27.939Z,21.27
2018-03-06T11:17:31.436Z,21.52
2018-03-06T11:18:33.977Z,20.00
2018-03-06T11:19:37.999Z,21.40
2018-03-06T11:20:40.997Z,21.17
2018-03-06T11:21:43.602Z,18.90
2018-03-06T11:22:47.070Z,20.90
2018-03-06T11:23:49.587Z,19.95
2018-03-06T11:24:52.913Z,20.50
2018-03-06T11:25:55.435Z,19.85
2018-03-06T11:26:58.739Z,20.15
2018-03-06T11:28:01.246Z,19.95
2018-03-06T11:29:05.348Z,19.25
2018-03-06T11:30:08.515Z,19.33
2018-03-06T11:31:11.059Z,18.67
2018-03-06T11:32:13.587Z,19.10
2018-03-06T11:33:17.746Z,21.08
2018-03-06T11:34:20.294Z,20.75
2018-03-06T11:35:24.055Z,18.87
2018-03-06T11:36:26.731Z,18.80
2018-03-06T11:37:29.338Z,18.65
2018-03-06T11:38:31.843Z,18.23
2018-03-06T11:39:34.517Z,18.83
2018-03-06T11:40:37.038Z,19.00
2018-03-06T11:41:39.561Z,18.55
2018-03-06T11:42:46.379Z,18.83
2018-03-06T11:43:49.753Z,18.23
2018-03-06T11:44:52.284Z,18.08
2018-03-06T11:45:55.278Z,18.83
2018-03-06T11:46:57.791Z,19.58
2018-03-06T11:48:00.358Z,18.05
2018-03-06T11:49:02.873Z,18.15
2018-03-06T11:50:05.387Z,18.08
2018-03-06T11:51:07.916Z,18.55
2018-03-06T11:52:10.474Z,18.77
2018-03-06T11:53:13.004Z,18.27
2018-03-06T11:54:18.062Z,19.05
2018-03-06T11:55:20.589Z,18.23
2018-03-06T11:56:23.134Z,18.45
2018-03-06T11:57:25.662Z,18.90
2018-03-06T11:58:28.221Z,18.23
2018-03-06T11:59:31.065Z,18.30
2018-03-06T12:00:34.358Z,19.70
2018-03-06T12:01:37.672Z,19.25
2018-03-06T12:02:40.207Z,18.70
2018-03-06T12:03:43.523Z,18.55
2018-03-06T12:04:46.023Z,18.30
2018-03-06T12:05:48.534Z,17.83
2018-03-06T12:06:51.055Z,18.58
2018-03-06T12:07:53.594Z,17.95
2018-03-06T12:08:58.296Z,18.70
2018-03-06T12:10:00.808Z,17.55
2018-03-06T12:11:03.318Z,18.67
2018-03-06T12:12:05.835Z,17.08
2018-03-06T12:13:08.359Z,18.48
2018-03-06T12:14:11.230Z,18.60
2018-03-06T12:15:13.768Z,18.58
2018-03-06T12:16:17.097Z,18.33
2018-03-06T12:17:19.595Z,18.23
2018-03-06T12:18:22.109Z,18.23
2018-03-06T12:19:24.663Z,17.60
2018-03-06T12:20:27.958Z,17.77
2018-03-06T12:21:30.585Z,19.02
2018-03-06T12:22:33.110Z,18.52
2018-03-06T12:23:35.610Z,17.92
2018-03-06T12:24:39.274Z,17.80
2018-03-06T12:25:41.774Z,17.73
2018-03-06T12:26:44.289Z,18.02
2018-03-06T12:27:46.801Z,17.33
2018-03-06T12:28:49.320Z,18.15
2018-03-06T12:29:51.854Z,17.85
2018-03-06T12:30:55.136Z,18.45
2018-03-06T12:31:58.456Z,16.98
2018-03-06T12:33:04.216Z,17.15
2018-03-06T12:34:06.726Z,17.65
2018-03-06T12:35:10.026Z,18.30
2018-03-06T12:36:16.288Z,18.27
2018-03-06T12:37:19.811Z,17.67
2018-03-06T12:38:22.342Z,17.85
2018-03-06T12:39:24.919Z,18.08
2018-03-06T12:40:27.449Z,17.27
2018-03-06T12:41:30.758Z,18.05
2018-03-06T12:42:33.280Z,17.65
2018-03-06T12:43:35.807Z,18.85
2018-03-06T12:44:38.318Z,16.27
2018-03-06T12:45:40.899Z,17.67
2018-03-06T12:46:44.205Z,18.17
2018-03-06T12:47:46.758Z,18.15
2018-03-06T12:48:50.061Z,17.75
2018-03-06T12:49:53.352Z,17.80
2018-03-06T12:50:55.879Z,17.40
2018-03-06T12:51:59.162Z,16.50
2018-03-06T12:53:01.683Z,17.98
2018-03-06T12:54:04.194Z,18.40
2018-03-06T12:55:07.473Z,17.08
2018-03-06T12:56:10.859Z,16.23
2018-03-06T12:57:14.139Z,17.50
2018-03-06T12:58:16.651Z,17.12
2018-03-06T12:59:19.171Z,18.70
2018-03-06T13:00:21.680Z,17.87
2018-03-06T13:01:24.535Z,17.25
2018-03-06T13:02:27.051Z,16.35
2018-03-06T13:03:29.562Z,14.02
2018-03-06T13:04:32.826Z,15.10
2018-03-06T13:05:35.326Z,14.57
2018-03-06T13:06:37.865Z,15.35
2018-03-06T13:07:42.639Z,15.30
2018-03-06T13:08:45.972Z,14.85
2018-03-06T13:09:49.244Z,15.30
2018-03-06T13:10:51.768Z,14.48
2018-03-06T13:11:54.294Z,14.68
2018-03-06T13:12:57.627Z,14.60
2018-03-06T13:14:00.143Z,13.45
2018-03-06T13:15:03.469Z,13.73
2018-03-06T13:16:05.983Z,12.70
2018-03-06T13:17:09.279Z,13.82
2018-03-06T13:18:11.783Z,13.10
2018-03-06T13:19:14.302Z,14.00
2018-03-06T13:20:18.299Z,13.73
2018-03-06T13:21:21.589Z,14.05
2018-03-06T13:22:24.893Z,12.88
2018-03-06T13:23:27.410Z,13.52
2018-03-06T13:24:29.971Z,14.32
2018-03-06T13:25:32.507Z,14.02
2018-03-06T13:26:35.067Z,14.40
2018-03-06T13:27:37.619Z,14.20
2018-03-06T13:28:48.975Z,14.18
2018-03-06T13:29:52.258Z,13.80
2018-03-06T13:30:55.583Z,14.07
2018-03-06T13:31:58.130Z,13.68